createdAt,value
2018-08-19T00:01:13.124Z,88.75
2018-08-19T00:03:42.774Z,88.55
2018-08-19T00:06:11.860Z,88.78
2018-08-19T00:08:41.624Z,88.47
2018-08-19T00:11:10.802Z,88.66
2018-08-19T00:13:40.996Z,88.89
2018-08-19T00:16:11.065Z,88.89
2018-08-19T00:18:40.155Z,88.69
2018-08-19T00:21:11.065Z,89.00
2018-08-19T00:23:45.201Z,89.07
2018-08-19T00:26:15.534Z,89.21
2018-08-19T00:28:44.733Z,89.38
2018-08-19T00:31:14.211Z,89.47
2018-08-19T00:33:43.359Z,89.69
2018-08-19T00:36:25.991Z,89.62
2018-08-19T00:38:56.526Z,89.42
2018-08-19T00:41:25.750Z,89.61
2018-08-19T00:43:54.930Z,89.75
2018-08-19T00:46:27.477Z,89.55
2018-08-19T00:48:56.704Z,89.69
2018-08-19T00:51:25.811Z,90.06
2018-08-19T00:53:55.421Z,89.95
2018-08-19T00:56:24.584Z,90.09
2018-08-19T00:58:53.549Z,90.41
2018-08-19T01:01:31.891Z,90.40
2018-08-19T01:04:00.816Z,90.42
2018-08-19T01:06:29.881Z,90.17
2018-08-19T01:08:58.905Z,90.44
2018-08-19T01:11:31.412Z,90.44
2018-08-19T01:14:00.471Z,90.50
2018-08-19T01:16:29.479Z,90.78
2018-08-19T01:19:02.277Z,90.57
2018-08-19T01:21:32.998Z,90.48
2018-08-19T01:24:05.025Z,90.59
2018-08-19T01:26:35.141Z,90.89
2018-08-19T01:29:04.594Z,90.84
2018-08-19T01:31:33.634Z,90.87
2018-08-19T01:34:05.755Z,90.91
2018-08-19T01:36:34.701Z,90.91
2018-08-19T01:39:03.951Z,90.96
2018-08-19T01:41:33.140Z,91.10
2018-08-19T01:44:12.275Z,91.20
2018-08-19T01:46:43.384Z,90.78
2018-08-19T01:49:12.466Z,91.13
2018-08-19T01:51:42.682Z,91.07
2018-08-19T01:54:16.753Z,90.87
2018-08-19T01:56:45.824Z,91.45
2018-08-19T01:59:15.191Z,91.22
2018-08-19T02:01:50.412Z,91.04
2018-08-19T02:04:19.857Z,91.44
2018-08-19T02:06:48.929Z,91.33
2018-08-19T02:09:18.837Z,91.65
2018-08-19T02:11:50.037Z,91.65
2018-08-19T02:14:19.810Z,91.45
2018-08-19T02:16:49.579Z,91.51
2018-08-19T02:19:18.660Z,91.43
2018-08-19T02:21:48.705Z,91.68
2018-08-19T02:24:18.008Z,91.84
2018-08-19T02:26:47.085Z,91.79
2018-08-19T02:29:34.016Z,91.75
2018-08-19T02:32:12.124Z,91.75
2018-08-19T02:34:43.172Z,91.47
2018-08-19T02:37:13.247Z,91.75
2018-08-19T02:39:44.038Z,91.62
2018-08-19T02:42:25.165Z,91.49
2018-08-19T02:45:00.225Z,91.61
2018-08-19T02:47:29.364Z,91.53
2018-08-19T02:49:58.395Z,91.58
2018-08-19T02:52:29.553Z,91.42
2018-08-19T02:54:59.971Z,92.16
2018-08-19T02:57:29.985Z,92.18
2018-08-19T03:00:00.053Z,91.81
2018-08-19T03:02:32.693Z,91.87
2018-08-19T03:05:03.376Z,91.71
2018-08-19T03:07:32.936Z,91.47
2018-08-19T03:10:07.212Z,91.66
2018-08-19T03:12:36.324Z,91.73
2018-08-19T03:15:06.045Z,91.67
2018-08-19T03:17:35.125Z,91.71
2018-08-19T03:20:04.878Z,91.81
2018-08-19T03:22:33.909Z,92.12
2018-08-19T03:25:03.220Z,92.15
2018-08-19T03:27:33.520Z,92.47
2018-08-19T03:30:05.050Z,92.37
2018-08-19T03:32:34.121Z,92.51
2018-08-19T03:35:13.135Z,92.47
2018-08-19T03:37:42.412Z,92.44
2018-08-19T03:40:11.360Z,92.56
2018-08-19T03:42:40.466Z,92.51
2018-08-19T03:45:13.548Z,92.48
2018-08-19T03:47:42.686Z,92.38
2018-08-19T03:50:16.711Z,92.64
2018-08-19T03:52:46.020Z,92.75
2018-08-19T03:55:19.065Z,92.89
2018-08-19T03:57:48.673Z,92.93
2018-08-19T04:00:18.832Z,92.97
2018-08-19T04:02:47.824Z,93.13
2018-08-19T04:05:16.824Z,93.37
2018-08-19T04:07:45.787Z,92.71
2018-08-19T04:10:14.681Z,92.85
2018-08-19T04:12:44.005Z,92.56
2018-08-19T04:15:13.030Z,92.62
2018-08-19T04:17:41.954Z,92.96
2018-08-19T04:20:10.917Z,92.57
2018-08-19T04:22:39.981Z,92.84
2018-08-19T04:25:08.969Z,92.54
2018-08-19T04:27:38.005Z,92.85
2018-08-19T04:30:06.955Z,92.82
2018-08-19T04:32:36.065Z,93.04
2018-08-19T04:35:05.066Z,93.17
2018-08-19T04:37:34.040Z,93.10
2018-08-19T04:40:03.046Z,93.07
2018-08-19T04:42:32.236Z,93.13
2018-08-19T04:45:02.020Z,93.05
2018-08-19T04:47:32.765Z,93.10
2018-08-19T04:50:01.807Z,93.05
2018-08-19T04:52:33.329Z,93.04
2018-08-19T04:55:02.440Z,93.03
2018-08-19T04:57:31.511Z,93.13
2018-08-19T05:00:00.513Z,93.17
2018-08-19T05:02:29.417Z,93.31
2018-08-19T05:04:58.508Z,93.33
2018-08-19T05:07:27.444Z,92.98
2018-08-19T05:09:56.564Z,92.98
2018-08-19T05:12:25.446Z,92.87
2018-08-19T05:14:54.370Z,92.95
2018-08-19T05:17:23.476Z,92.78
2018-08-19T05:19:56.632Z,92.77
2018-08-19T05:22:25.610Z,93.08
2018-08-19T05:24:54.604Z,92.95
2018-08-19T05:27:23.590Z,92.97
2018-08-19T05:29:52.634Z,92.90
2018-08-19T05:32:21.922Z,92.86
2018-08-19T05:34:50.961Z,92.61
2018-08-19T05:37:19.977Z,92.82
2018-08-19T05:39:57.697Z,92.59
2018-08-19T05:42:26.714Z,92.60
2018-08-19T05:44:55.866Z,91.83
2018-08-19T05:47:24.862Z,92.31
2018-08-19T05:49:54.010Z,91.62
2018-08-19T05:52:23.878Z,91.38
2018-08-19T05:55:00.091Z,90.82
2018-08-19T05:57:35.247Z,90.56
2018-08-19T06:00:09.429Z,90.25
2018-08-19T06:02:44.461Z,89.48
2018-08-19T06:05:13.606Z,89.94
2018-08-19T06:07:42.786Z,89.83
2018-08-19T06:10:11.941Z,88.83
2018-08-19T06:12:40.825Z,86.35
2018-08-19T06:15:10.011Z,86.41
2018-08-19T06:17:38.963Z,85.82
2018-08-19T06:20:08.359Z,84.49
2018-08-19T06:22:40.315Z,83.70
2018-08-19T06:25:10.288Z,83.61
2018-08-19T06:27:45.097Z,83.85
2018-08-19T06:30:15.089Z,82.82
2018-08-19T06:32:44.192Z,81.82
2018-08-19T06:35:13.253Z,81.00
2018-08-19T06:37:42.226Z,80.99
2018-08-19T06:40:12.767Z,80.16
2018-08-19T06:42:41.871Z,79.93
2018-08-19T06:45:11.792Z,79.59
2018-08-19T06:47:40.903Z,79.66
2018-08-19T06:50:22.163Z,79.73
2018-08-19T06:52:52.276Z,79.46
2018-08-19T06:55:21.609Z,78.93
2018-08-19T06:57:51.081Z,78.64
2018-08-19T07:00:34.516Z,78.60
2018-08-19T07:03:05.371Z,77.66
2018-08-19T07:05:35.130Z,77.83
2018-08-19T07:08:04.296Z,78.11
2018-08-19T07:10:36.712Z,77.15
2018-08-19T07:13:08.530Z,78.11
2018-08-19T07:15:38.825Z,76.15
2018-08-19T07:18:09.247Z,76.83
2018-08-19T07:20:38.954Z,76.58
2018-08-19T07:23:08.297Z,76.11
2018-08-19T07:25:39.913Z,75.63
2018-08-19T07:28:10.257Z,74.33
2018-08-19T07:30:39.715Z,74.76
2018-08-19T07:33:08.973Z,73.94
2018-08-19T07:35:38.151Z,72.97
2018-08-19T07:38:07.114Z,73.46
2018-08-19T07:40:36.131Z,72.93
2018-08-19T07:43:05.324Z,71.71
2018-08-19T07:45:34.493Z,72.07
2018-08-19T07:48:03.602Z,70.61
2018-08-19T07:50:32.772Z,70.61
2018-08-19T07:53:01.845Z,70.66
2018-08-19T07:55:30.877Z,70.27
2018-08-19T07:57:59.863Z,70.32
2018-08-19T08:00:34.102Z,69.16
2018-08-19T08:03:03.328Z,67.28
2018-08-19T08:05:38.305Z,66.75
2018-08-19T08:08:08.749Z,66.50
2018-08-19T08:10:38.373Z,65.91
2018-08-19T08:13:09.491Z,64.04
2018-08-19T08:15:43.669Z,63.81
2018-08-19T08:18:12.946Z,63.08
2018-08-19T08:20:42.046Z,62.71
2018-08-19T08:23:27.883Z,62.58
2018-08-19T08:25:57.043Z,61.19
2018-08-19T08:28:26.366Z,61.26
2018-08-19T08:30:55.519Z,63.00
2018-08-19T08:33:24.571Z,59.96
2018-08-19T08:35:56.291Z,58.94
2018-08-19T08:38:25.446Z,57.68
2018-08-19T08:40:55.002Z,57.37
2018-08-19T08:43:24.113Z,56.73
2018-08-19T08:45:55.536Z,55.72
2018-08-19T08:48:24.997Z,55.09
2018-08-19T08:50:54.063Z,54.00
2018-08-19T08:53:25.832Z,52.68
2018-08-19T08:55:54.920Z,53.87
2018-08-19T08:58:24.027Z,51.64
2018-08-19T09:00:53.083Z,50.63
2018-08-19T09:03:22.248Z,49.94
2018-08-19T09:05:51.312Z,50.15
2018-08-19T09:08:20.366Z,51.09
2018-08-19T09:10:49.582Z,52.28
2018-08-19T09:13:18.612Z,54.15
2018-08-19T09:15:47.914Z,54.22
2018-08-19T09:18:16.964Z,54.16
2018-08-19T09:20:45.972Z,55.67
2018-08-19T09:23:15.323Z,55.33
2018-08-19T09:25:44.355Z,55.54
2018-08-19T09:28:13.351Z,56.31
2018-08-19T09:30:43.565Z,54.80
2018-08-19T09:33:13.352Z,55.11
2018-08-19T09:35:43.422Z,54.85
2018-08-19T09:38:15.239Z,53.15
2018-08-19T09:40:45.157Z,52.17
2018-08-19T09:43:14.412Z,52.84
2018-08-19T09:45:44.021Z,50.65
2018-08-19T09:48:13.765Z,50.63
2018-08-19T09:50:43.571Z,50.29
2018-08-19T09:53:12.655Z,48.96
2018-08-19T09:55:43.113Z,48.41
2018-08-19T09:58:19.325Z,48.56
2018-08-19T10:00:53.415Z,46.08
2018-08-19T10:03:22.498Z,46.71
2018-08-19T10:07:19.994Z,45.82
2018-08-19T10:09:49.350Z,47.01
2018-08-19T10:12:18.493Z,48.90
2018-08-19T10:14:47.569Z,49.36
2018-08-19T10:17:16.653Z,50.23
2018-08-19T10:19:45.643Z,49.02
2018-08-19T10:22:14.724Z,48.39
2018-08-19T10:24:43.769Z,47.15
2018-08-19T10:27:12.806Z,46.63
2018-08-19T10:29:41.797Z,45.80
2018-08-19T10:32:10.882Z,47.58
2018-08-19T10:34:39.919Z,48.31
2018-08-19T10:37:09.056Z,49.84
2018-08-19T10:39:38.075Z,50.53
2018-08-19T10:42:18.886Z,51.49
2018-08-19T10:44:49.654Z,50.09
2018-08-19T10:47:19.452Z,50.48
2018-08-19T10:49:54.901Z,49.94
2018-08-19T10:52:28.516Z,50.48
2018-08-19T10:54:58.933Z,49.57
2018-08-19T10:57:27.867Z,51.22
2018-08-19T10:59:58.364Z,49.74
2018-08-19T11:02:27.324Z,48.65
2018-08-19T11:04:58.617Z,48.98
2018-08-19T11:07:27.596Z,50.00
2018-08-19T11:10:20.730Z,48.73
2018-08-19T11:12:52.309Z,49.01
2018-08-19T11:15:32.633Z,48.62
2018-08-19T11:18:17.494Z,46.76
2018-08-19T11:20:49.684Z,46.44
2018-08-19T11:23:22.660Z,47.27
2018-08-19T11:25:52.557Z,46.11
2018-08-19T11:28:36.201Z,47.84
2018-08-19T11:31:05.570Z,47.44
2018-08-19T11:33:40.791Z,46.32
2018-08-19T11:36:10.873Z,46.57
2018-08-19T11:38:40.946Z,46.32
2018-08-19T11:41:10.980Z,46.55
2018-08-19T11:43:43.095Z,47.13
2018-08-19T11:46:12.211Z,48.25
2018-08-19T11:48:41.875Z,46.29
2018-08-19T11:51:11.117Z,45.84
2018-08-19T11:53:40.367Z,45.22
2018-08-19T11:56:09.912Z,45.43
2018-08-19T11:58:46.949Z,45.40
2018-08-19T12:01:17.385Z,45.33
2018-08-19T12:04:00.227Z,46.51
2018-08-19T12:06:31.829Z,45.38
2018-08-19T12:09:02.350Z,45.62
2018-08-19T12:11:33.126Z,46.87
2018-08-19T12:14:06.394Z,46.15
2018-08-19T12:16:44.285Z,46.60
2018-08-19T12:19:18.486Z,44.83
2018-08-19T12:21:58.639Z,45.46
2018-08-19T12:24:33.926Z,43.18
2018-08-19T12:27:04.198Z,41.66
2018-08-19T12:29:34.454Z,42.21
2018-08-19T12:32:14.100Z,42.56
2018-08-19T12:34:45.106Z,41.72
2018-08-19T12:37:15.442Z,42.77
2018-08-19T12:39:44.517Z,42.13
2018-08-19T12:42:13.725Z,40.76
2018-08-19T12:44:42.932Z,42.32
2018-08-19T12:47:17.641Z,42.23
2018-08-19T12:49:49.502Z,42.16
2018-08-19T12:52:20.536Z,41.88
2018-08-19T12:54:54.787Z,42.28
2018-08-19T12:57:24.065Z,42.01
2018-08-19T12:59:53.988Z,41.36
2018-08-19T13:02:26.244Z,38.05
2018-08-19T13:04:55.433Z,37.44
2018-08-19T13:07:24.466Z,32.56
2018-08-19T13:09:53.542Z,32.75
2018-08-19T13:12:22.630Z,29.22
2018-08-19T13:14:51.736Z,28.04
2018-08-19T13:17:20.805Z,28.49
2018-08-19T13:19:56.031Z,29.67
2018-08-19T13:22:25.545Z,27.00
2018-08-19T13:24:54.655Z,27.35
2018-08-19T13:27:23.650Z,26.04
2018-08-19T13:29:52.732Z,23.77
2018-08-19T13:32:21.814Z,24.61
2018-08-19T13:34:50.910Z,22.19
2018-08-19T13:37:19.882Z,25.71
2018-08-19T13:39:49.282Z,25.10
2018-08-19T13:42:18.231Z,24.35
2018-08-19T13:44:47.391Z,23.90
2018-08-19T13:47:16.516Z,24.64
2018-08-19T13:49:45.443Z,24.29
2018-08-19T13:52:14.722Z,23.68
2018-08-19T13:54:55.305Z,22.70
2018-08-19T13:57:24.407Z,22.04
2018-08-19T13:59:53.369Z,21.28
2018-08-19T14:02:22.413Z,22.10
2018-08-19T14:04:51.407Z,21.39
2018-08-19T14:07:20.569Z,21.06
2018-08-19T14:09:49.535Z,19.42
2018-08-19T14:12:18.623Z,19.49
2018-08-19T14:14:47.713Z,19.30
2018-08-19T14:17:16.877Z,18.61
2018-08-19T14:19:45.867Z,19.21
2018-08-19T14:22:14.960Z,18.56
2018-08-19T14:24:43.996Z,19.29
2018-08-19T14:27:13.574Z,19.64
2018-08-19T14:29:43.535Z,19.92
2018-08-19T14:32:27.611Z,19.39
2018-08-19T14:34:57.074Z,20.18
2018-08-19T14:37:27.161Z,19.27
2018-08-19T14:39:57.226Z,20.37
2018-08-19T14:42:26.358Z,22.21
2018-08-19T14:44:56.418Z,23.07
2018-08-19T14:47:25.662Z,22.99
2018-08-19T14:49:55.636Z,21.30
2018-08-19T14:52:24.718Z,22.34
2018-08-19T14:54:53.771Z,22.19
2018-08-19T14:57:22.958Z,22.46
2018-08-19T14:59:52.387Z,21.00
2018-08-19T15:02:21.950Z,21.18
2018-08-19T15:04:50.910Z,22.98
2018-08-19T15:07:20.349Z,22.80
2018-08-19T15:09:51.068Z,21.34
2018-08-19T15:12:21.253Z,19.63
2018-08-19T15:14:51.194Z,21.14
2018-08-19T15:17:20.222Z,20.70
2018-08-19T15:19:51.844Z,19.57
2018-08-19T15:22:21.097Z,20.54
2018-08-19T15:24:50.941Z,18.92
2018-08-19T15:27:20.089Z,19.74
2018-08-19T15:29:52.137Z,22.00
2018-08-19T15:32:23.478Z,21.27
2018-08-19T15:34:52.599Z,23.08
2018-08-19T15:37:21.661Z,24.87
2018-08-19T15:39:50.776Z,25.78
2018-08-19T15:42:19.943Z,24.34
2018-08-19T15:44:49.554Z,25.61
2018-08-19T15:47:18.650Z,24.57
2018-08-19T15:49:47.896Z,25.26
2018-08-19T15:52:17.025Z,24.89
2018-08-19T15:54:53.026Z,25.82
2018-08-19T15:57:22.065Z,24.12
2018-08-19T15:59:51.416Z,25.01
2018-08-19T16:02:20.498Z,24.99
2018-08-19T16:04:50.521Z,24.44
2018-08-19T16:07:19.926Z,25.57
2018-08-19T16:09:49.119Z,28.56
2018-08-19T16:12:18.182Z,29.33
2018-08-19T16:14:47.242Z,29.61
2018-08-19T16:17:16.860Z,28.15
2018-08-19T16:19:45.872Z,27.80
2018-08-19T16:22:15.193Z,27.46
2018-08-19T16:24:44.208Z,28.27
2018-08-19T16:27:13.722Z,28.34
2018-08-19T16:29:42.789Z,27.90
2018-08-19T16:32:11.893Z,27.17
2018-08-19T16:34:40.985Z,28.11
2018-08-19T16:37:09.901Z,27.72
2018-08-19T16:39:39.061Z,30.60
2018-08-19T16:42:08.405Z,28.34
2018-08-19T16:44:37.465Z,27.85
2018-08-19T16:47:06.509Z,30.42
2018-08-19T16:49:35.558Z,30.68
2018-08-19T16:52:04.663Z,30.73
2018-08-19T16:54:33.790Z,33.96
2018-08-19T16:57:02.917Z,34.04
2018-08-19T16:59:32.031Z,33.09
2018-08-19T17:02:01.128Z,33.31
2018-08-19T17:04:30.186Z,32.08
2018-08-19T17:06:59.509Z,33.58
2018-08-19T17:09:28.624Z,35.05
2018-08-19T17:11:57.894Z,34.68
2018-08-19T17:14:26.985Z,37.48
2018-08-19T17:16:55.941Z,37.64
2018-08-19T17:19:24.917Z,38.79
2018-08-19T17:21:53.906Z,39.41
2018-08-19T17:24:22.895Z,38.82
2018-08-19T17:26:57.318Z,39.45
2018-08-19T17:29:26.499Z,39.89
2018-08-19T17:31:55.481Z,40.40
2018-08-19T17:34:25.635Z,42.04
2018-08-19T17:36:54.747Z,41.94
2018-08-19T17:39:24.376Z,42.31
2018-08-19T17:41:54.084Z,42.47
2018-08-19T17:44:23.611Z,44.25
2018-08-19T17:46:54.909Z,45.35
2018-08-19T17:49:26.336Z,46.59
2018-08-19T17:51:56.285Z,46.77
2018-08-19T17:54:26.429Z,48.02
2018-08-19T17:56:56.349Z,47.76
2018-08-19T17:59:25.428Z,48.50
2018-08-19T18:01:54.521Z,49.16
2018-08-19T18:04:24.291Z,49.51
2018-08-19T18:06:53.282Z,49.80
2018-08-19T18:09:23.053Z,51.04
2018-08-19T18:12:01.069Z,51.52
2018-08-19T18:14:31.466Z,51.32
2018-08-19T18:17:00.455Z,51.92
2018-08-19T18:19:33.848Z,51.90
2018-08-19T18:22:02.850Z,53.15
2018-08-19T18:24:32.016Z,52.91
2018-08-19T18:27:01.162Z,53.22
2018-08-19T18:29:41.601Z,54.22
2018-08-19T18:32:10.712Z,54.70
2018-08-19T18:34:40.276Z,54.52
2018-08-19T18:37:09.227Z,54.54
2018-08-19T18:39:38.421Z,55.52
2018-08-19T18:42:07.570Z,55.71
2018-08-19T18:44:36.637Z,56.81
2018-08-19T18:47:06.028Z,56.26
2018-08-19T18:49:35.225Z,57.11
2018-08-19T18:52:09.369Z,57.47
2018-08-19T18:54:40.514Z,58.15
2018-08-19T18:57:09.562Z,59.59
2018-08-19T18:59:43.581Z,58.91
2018-08-19T19:02:12.676Z,60.84
2018-08-19T19:04:41.666Z,60.71
2018-08-19T19:07:10.699Z,60.72
2018-08-19T19:09:45.047Z,60.60
2018-08-19T19:12:14.119Z,61.30
2018-08-19T19:14:43.159Z,61.74
2018-08-19T19:17:12.123Z,61.30
2018-08-19T19:19:46.277Z,62.26
2018-08-19T19:22:15.370Z,62.14
2018-08-19T19:24:44.446Z,61.66
2018-08-19T19:27:13.690Z,62.30
2018-08-19T19:29:44.496Z,62.46
2018-08-19T19:32:18.226Z,62.49
2018-08-19T19:34:47.213Z,62.38
2018-08-19T19:37:16.256Z,62.05
2018-08-19T19:39:47.250Z,62.96
2018-08-19T19:42:16.443Z,63.17
2018-08-19T19:44:45.347Z,62.62
2018-08-19T19:47:14.557Z,63.48
2018-08-19T19:49:48.814Z,62.62
2018-08-19T19:52:17.867Z,63.59
2018-08-19T19:54:46.936Z,63.89
2018-08-19T19:57:15.969Z,63.39
2018-08-19T19:59:44.933Z,63.39
2018-08-19T20:02:23.291Z,63.36
2018-08-19T20:04:53.465Z,63.74
2018-08-19T20:07:22.477Z,63.53
2018-08-19T20:09:52.658Z,63.46
2018-08-19T20:12:25.986Z,63.90
2018-08-19T20:14:54.965Z,63.83
2018-08-19T20:17:24.100Z,63.80
2018-08-19T20:19:53.190Z,64.06
2018-08-19T20:22:22.273Z,64.65
2018-08-19T20:24:51.392Z,64.18
2018-08-19T20:27:20.532Z,64.60
2018-08-19T20:29:52.749Z,64.08
2018-08-19T20:32:21.877Z,64.24
2018-08-19T20:34:52.337Z,65.22
2018-08-19T20:37:24.111Z,64.82
2018-08-19T20:39:53.653Z,65.38
2018-08-19T20:42:22.794Z,65.71
2018-08-19T20:44:51.921Z,65.73
2018-08-19T20:47:21.037Z,65.23
2018-08-19T20:49:50.572Z,65.25
2018-08-19T20:52:32.942Z,65.90
2018-08-19T20:55:02.022Z,66.03
2018-08-19T20:57:31.182Z,66.92
2018-08-19T21:00:00.339Z,66.60
2018-08-19T21:02:29.379Z,66.32
2018-08-19T21:04:58.455Z,67.34
2018-08-19T21:07:27.487Z,67.37
2018-08-19T21:09:56.496Z,67.45
2018-08-19T21:12:25.609Z,67.51
2018-08-19T21:14:54.662Z,67.22
2018-08-19T21:17:23.671Z,67.02
2018-08-19T21:19:52.790Z,67.63
2018-08-19T21:22:22.098Z,67.89
2018-08-19T21:24:51.136Z,67.64
2018-08-19T21:27:20.271Z,67.42
2018-08-19T21:29:49.392Z,67.36
2018-08-19T21:32:18.487Z,68.06
2018-08-19T21:34:47.513Z,68.36
2018-08-19T21:37:21.725Z,68.37
2018-08-19T21:39:50.823Z,68.26
2018-08-19T21:42:19.969Z,68.12
2018-08-19T21:44:48.928Z,68.11
2018-08-19T21:47:17.969Z,68.31
2018-08-19T21:49:51.053Z,68.40
2018-08-19T21:52:20.184Z,68.44
2018-08-19T21:54:49.305Z,67.94
2018-08-19T21:57:18.389Z,68.03
2018-08-19T21:59:47.382Z,68.75
2018-08-19T22:02:21.558Z,68.67
2018-08-19T22:04:50.621Z,68.78
2018-08-19T22:07:19.690Z,69.14
2018-08-19T22:09:48.770Z,69.51
2018-08-19T22:12:17.913Z,70.22
2018-08-19T22:14:47.016Z,70.43
2018-08-19T22:17:16.198Z,70.93
2018-08-19T22:19:45.448Z,69.80
2018-08-19T22:22:14.519Z,69.63
2018-08-19T22:24:43.675Z,68.94
2018-08-19T22:27:17.427Z,69.40
2018-08-19T22:29:46.461Z,68.84
2018-08-19T22:32:15.471Z,69.06
2018-08-19T22:34:44.626Z,68.70
2018-08-19T22:37:13.826Z,69.08
2018-08-19T22:39:43.229Z,69.12
2018-08-19T22:42:12.301Z,68.84
2018-08-19T22:44:41.372Z,68.92
2018-08-19T22:47:10.380Z,68.50
2018-08-19T22:49:39.444Z,69.05
2018-08-19T22:52:24.710Z,68.92
2018-08-19T22:54:56.115Z,68.99
2018-08-19T22:57:25.617Z,68.52
2018-08-19T22:59:54.849Z,68.94
2018-08-19T23:02:24.151Z,68.84
2018-08-19T23:04:53.181Z,68.44
2018-08-19T23:07:22.216Z,69.28
2018-08-19T23:09:51.349Z,68.91
2018-08-19T23:12:20.309Z,68.66
2018-08-19T23:15:00.190Z,68.57
2018-08-19T23:17:29.197Z,69.00
2018-08-19T23:19:58.194Z,69.24
2018-08-19T23:22:27.321Z,69.01
2018-08-19T23:24:56.385Z,68.60
2018-08-19T23:27:25.337Z,68.41
2018-08-19T23:29:54.502Z,68.72
2018-08-19T23:32:23.411Z,69.12
2018-08-19T23:34:52.369Z,69.07
2018-08-19T23:37:21.291Z,69.71
2018-08-19T23:39:51.480Z,69.50
2018-08-19T23:42:20.589Z,70.18
2018-08-19T23:44:49.672Z,70.80
2018-08-19T23:47:18.591Z,71.08
2018-08-19T23:49:47.658Z,70.65
2018-08-19T23:52:16.683Z,70.70
2018-08-19T23:54:45.818Z,71.37
2018-08-19T23:57:14.911Z,70.79
2018-08-19T23:59:46.384Z,71.47
